sensor_id;sensor_type;location;lat;lon;timestamp;P1;durP1;ratioP1;P2;durP2;ratioP2
8281;SDS011;25606;42.686;23.136;2022-07-22T00:00:04;6.00;;;3.80;;
8281;SDS011;25606;42.686;23.136;2022-07-22T00:02:31;5.40;;;3.50;;
8281;SDS011;25606;42.686;23.136;2022-07-22T00:04:59;7.50;;;4.17;;
8281;SDS011;25606;42.686;23.136;2022-07-22T00:07:26;4.83;;;3.67;;
8281;SDS011;25606;42.686;23.136;2022-07-22T00:09:53;6.00;;;3.60;;
8281;SDS011;25606;42.686;23.136;2022-07-22T00:12:22;3.80;;;3.50;;
8281;SDS011;25606;42.686;23.136;2022-07-22T00:14:49;7.07;;;3.80;;
8281;SDS011;25606;42.686;23.136;2022-07-22T00:17:16;7.60;;;4.10;;
8281;SDS011;25606;42.686;23.136;2022-07-22T00:19:44;7.03;;;3.93;;
8281;SDS011;25606;42.686;23.136;2022-07-22T00:22:11;4.40;;;4.00;;
8281;SDS011;25606;42.686;23.136;2022-07-22T00:24:38;7.53;;;3.97;;
8281;SDS011;25606;42.686;23.136;2022-07-22T00:27:05;6.27;;;4.00;;
8281;SDS011;25606;42.686;23.136;2022-07-22T00:29:34;8.87;;;4.40;;
8281;SDS011;25606;42.686;23.136;2022-07-22T00:32:02;7.57;;;4.10;;
8281;SDS011;25606;42.686;23.136;2022-07-22T00:34:29;4.87;;;3.47;;
8281;SDS011;25606;42.686;23.136;2022-07-22T00:36:56;7.20;;;3.70;;
8281;SDS011;25606;42.686;23.136;2022-07-22T00:39:24;5.80;;;3.80;;
8281;SDS011;25606;42.686;23.136;2022-07-22T00:41:51;6.30;;;4.17;;
8281;SDS011;25606;42.686;23.136;2022-07-22T00:44:18;5.80;;;3.67;;
8281;SDS011;25606;42.686;23.136;2022-07-22T00:46:47;4.87;;;3.70;;
8281;SDS011;25606;42.686;23.136;2022-07-22T00:49:14;8.10;;;3.73;;
8281;SDS011;25606;42.686;23.136;2022-07-22T00:51:41;6.40;;;3.40;;
8281;SDS011;25606;42.686;23.136;2022-07-22T00:54:09;6.13;;;4.17;;
8281;SDS011;25606;42.686;23.136;2022-07-22T00:56:36;5.50;;;3.70;;
8281;SDS011;25606;42.686;23.136;2022-07-22T00:59:05;7.57;;;3.90;;
8281;SDS011;25606;42.686;23.136;2022-07-22T01:01:33;5.73;;;3.77;;
8281;SDS011;25606;42.686;23.136;2022-07-22T01:04:02;4.17;;;3.70;;
8281;SDS011;25606;42.686;23.136;2022-07-22T01:06:29;4.97;;;3.87;;
8281;SDS011;25606;42.686;23.136;2022-07-22T01:08:57;14.53;;;4.27;;
8281;SDS011;25606;42.686;23.136;2022-07-22T01:11:25;7.33;;;3.97;;
8281;SDS011;25606;42.686;23.136;2022-07-22T01:13:53;5.60;;;4.20;;
8281;SDS011;25606;42.686;23.136;2022-07-22T01:16:21;5.87;;;3.80;;
8281;SDS011;25606;42.686;23.136;2022-07-22T01:18:48;5.77;;;3.87;;
8281;SDS011;25606;42.686;23.136;2022-07-22T01:21:17;5.30;;;3.90;;
8281;SDS011;25606;42.686;23.136;2022-07-22T01:23:44;5.70;;;3.83;;
8281;SDS011;25606;42.686;23.136;2022-07-22T01:26:12;7.07;;;4.33;;
8281;SDS011;25606;42.686;23.136;2022-07-22T01:28:40;8.03;;;3.60;;
8281;SDS011;25606;42.686;23.136;2022-07-22T01:31:07;6.30;;;3.60;;
8281;SDS011;25606;42.686;23.136;2022-07-22T01:33:35;4.23;;;3.70;;
8281;SDS011;25606;42.686;23.136;2022-07-22T01:36:03;7.10;;;4.00;;
8281;SDS011;25606;42.686;23.136;2022-07-22T01:38:32;4.63;;;4.00;;
8281;SDS011;25606;42.686;23.136;2022-07-22T01:40:59;5.43;;;4.23;;
8281;SDS011;25606;42.686;23.136;2022-07-22T01:43:26;7.60;;;4.10;;
8281;SDS011;25606;42.686;23.136;2022-07-22T01:45:54;6.67;;;4.03;;
8281;SDS011;25606;42.686;23.136;2022-07-22T01:48:21;4.90;;;4.40;;
8281;SDS011;25606;42.686;23.136;2022-07-22T01:50:48;7.13;;;4.20;;
8281;SDS011;25606;42.686;23.136;2022-07-22T01:53:16;5.40;;;3.70;;
8281;SDS011;25606;42.686;23.136;2022-07-22T01:55:44;4.90;;;3.70;;
8281;SDS011;25606;42.686;23.136;2022-07-22T01:58:12;6.97;;;3.83;;
8281;SDS011;25606;42.686;23.136;2022-07-22T02:00:39;4.37;;;3.93;;
8281;SDS011;25606;42.686;23.136;2022-07-22T02:03:06;4.67;;;4.00;;
8281;SDS011;25606;42.686;23.136;2022-07-22T02:05:35;6.70;;;3.87;;
8281;SDS011;25606;42.686;23.136;2022-07-22T02:08:03;5.80;;;4.07;;
8281;SDS011;25606;42.686;23.136;2022-07-22T02:10:31;5.37;;;3.97;;
8281;SDS011;25606;42.686;23.136;2022-07-22T02:12:59;5.60;;;4.00;;
8281;SDS011;25606;42.686;23.136;2022-07-22T02:15:26;5.40;;;3.70;;
8281;SDS011;25606;42.686;23.136;2022-07-22T02:17:54;5.43;;;3.90;;
8281;SDS011;25606;42.686;23.136;2022-07-22T02:20:21;4.00;;;3.70;;
8281;SDS011;25606;42.686;23.136;2022-07-22T02:22:49;5.40;;;3.77;;
8281;SDS011;25606;42.686;23.136;2022-07-22T02:25:16;3.83;;;3.53;;
8281;SDS011;25606;42.686;23.136;2022-07-22T02:27:43;5.27;;;3.80;;
8281;SDS011;25606;42.686;23.136;2022-07-22T02:30:12;7.20;;;3.83;;
8281;SDS011;25606;42.686;23.136;2022-07-22T02:32:39;4.40;;;3.73;;
8281;SDS011;25606;42.686;23.136;2022-07-22T02:35:07;4.87;;;4.10;;
8281;SDS011;25606;42.686;23.136;2022-07-22T02:37:34;4.60;;;4.10;;
8281;SDS011;25606;42.686;23.136;2022-07-22T02:40:03;4.43;;;4.03;;
8281;SDS011;25606;42.686;23.136;2022-07-22T02:42:30;9.13;;;4.50;;
8281;SDS011;25606;42.686;23.136;2022-07-22T02:44:58;5.20;;;3.70;;
8281;SDS011;25606;42.686;23.136;2022-07-22T02:47:26;6.50;;;3.97;;
8281;SDS011;25606;42.686;23.136;2022-07-22T02:49:53;9.03;;;3.97;;
8281;SDS011;25606;42.686;23.136;2022-07-22T02:52:21;3.63;;;3.30;;
8281;SDS011;25606;42.686;23.136;2022-07-22T02:54:48;4.57;;;3.60;;
8281;SDS011;25606;42.686;23.136;2022-07-22T02:57:15;4.37;;;3.97;;
8281;SDS011;25606;42.686;23.136;2022-07-22T02:59:42;4.33;;;3.67;;
8281;SDS011;25606;42.686;23.136;2022-07-22T03:02:10;4.77;;;3.77;;
8281;SDS011;25606;42.686;23.136;2022-07-22T03:04:38;5.57;;;3.57;;
8281;SDS011;25606;42.686;23.136;2022-07-22T03:07:05;6.03;;;3.77;;
8281;SDS011;25606;42.686;23.136;2022-07-22T03:09:33;4.47;;;3.70;;
8281;SDS011;25606;42.686;23.136;2022-07-22T03:12:00;4.20;;;3.80;;
8281;SDS011;25606;42.686;23.136;2022-07-22T03:14:27;5.10;;;3.73;;
8281;SDS011;25606;42.686;23.136;2022-07-22T03:16:54;6.70;;;4.23;;
8281;SDS011;25606;42.686;23.136;2022-07-22T03:19:22;7.07;;;3.77;;
8281;SDS011;25606;42.686;23.136;2022-07-22T03:21:50;4.77;;;3.63;;
8281;SDS011;25606;42.686;23.136;2022-07-22T03:24:18;6.33;;;3.57;;
8281;SDS011;25606;42.686;23.136;2022-07-22T03:26:45;4.93;;;3.47;;
8281;SDS011;25606;42.686;23.136;2022-07-22T03:29:12;5.53;;;3.27;;
8281;SDS011;25606;42.686;23.136;2022-07-22T03:31:40;7.07;;;3.80;;
8281;SDS011;25606;42.686;23.136;2022-07-22T03:34:07;5.57;;;4.00;;
8281;SDS011;25606;42.686;23.136;2022-07-22T03:36:34;4.87;;;3.50;;
8281;SDS011;25606;42.686;23.136;2022-07-22T03:39:03;5.57;;;3.43;;
8281;SDS011;25606;42.686;23.136;2022-07-22T03:41:30;6.20;;;3.77;;
8281;SDS011;25606;42.686;23.136;2022-07-22T03:43:58;5.17;;;3.70;;
8281;SDS011;25606;42.686;23.136;2022-07-22T03:46:25;5.67;;;3.67;;
8281;SDS011;25606;42.686;23.136;2022-07-22T03:48:52;3.93;;;3.50;;
8281;SDS011;25606;42.686;23.136;2022-07-22T03:51:19;6.60;;;3.50;;
8281;SDS011;25606;42.686;23.136;2022-07-22T03:53:47;4.20;;;3.30;;
8281;SDS011;25606;42.686;23.136;2022-07-22T03:56:15;5.47;;;3.73;;
8281;SDS011;25606;42.686;23.136;2022-07-22T03:58:43;9.60;;;3.50;;
8281;SDS011;25606;42.686;23.136;2022-07-22T04:01:10;4.43;;;3.77;;
8281;SDS011;25606;42.686;23.136;2022-07-22T04:03:37;7.53;;;3.73;;
8281;SDS011;25606;42.686;23.136;2022-07-22T04:06:05;5.17;;;4.00;;
8281;SDS011;25606;42.686;23.136;2022-07-22T04:08:32;3.87;;;3.57;;
8281;SDS011;25606;42.686;23.136;2022-07-22T04:11:00;3.67;;;3.37;;
8281;SDS011;25606;42.686;23.136;2022-07-22T04:13:28;4.87;;;3.70;;
8281;SDS011;25606;42.686;23.136;2022-07-22T04:15:55;3.93;;;3.53;;
8281;SDS011;25606;42.686;23.136;2022-07-22T04:18:23;5.73;;;3.53;;
8281;SDS011;25606;42.686;23.136;2022-07-22T04:20:50;4.13;;;3.33;;
8281;SDS011;25606;42.686;23.136;2022-07-22T04:23:17;4.03;;;3.43;;
8281;SDS011;25606;42.686;23.136;2022-07-22T04:25:44;5.37;;;3.13;;
8281;SDS011;25606;42.686;23.136;2022-07-22T04:28:12;9.73;;;3.70;;
8281;SDS011;25606;42.686;23.136;2022-07-22T04:30:40;5.80;;;3.83;;
8281;SDS011;25606;42.686;23.136;2022-07-22T04:33:08;6.77;;;3.30;;
8281;SDS011;25606;42.686;23.136;2022-07-22T04:35:35;4.13;;;3.63;;
8281;SDS011;25606;42.686;23.136;2022-07-22T04:38:02;7.27;;;3.47;;
8281;SDS011;25606;42.686;23.136;2022-07-22T04:40:29;4.23;;;3.60;;
8281;SDS011;25606;42.686;23.136;2022-07-22T04:42:57;5.87;;;3.50;;
8281;SDS011;25606;42.686;23.136;2022-07-22T04:45:24;3.70;;;3.27;;
8281;SDS011;25606;42.686;23.136;2022-07-22T04:47:52;3.80;;;2.93;;
8281;SDS011;25606;42.686;23.136;2022-07-22T04:50:20;5.93;;;3.70;;
8281;SDS011;25606;42.686;23.136;2022-07-22T04:52:47;6.37;;;3.60;;
8281;SDS011;25606;42.686;23.136;2022-07-22T04:55:14;3.57;;;3.20;;
8281;SDS011;25606;42.686;23.136;2022-07-22T04:57:42;4.23;;;3.47;;
8281;SDS011;25606;42.686;23.136;2022-07-22T05:00:09;4.70;;;3.90;;
8281;SDS011;25606;42.686;23.136;2022-07-22T05:02:37;4.20;;;3.77;;
8281;SDS011;25606;42.686;23.136;2022-07-22T05:05:06;4.70;;;3.50;;
8281;SDS011;25606;42.686;23.136;2022-07-22T05:07:33;10.07;;;4.40;;
8281;SDS011;25606;42.686;23.136;2022-07-22T05:10:00;8.30;;;4.10;;
8281;SDS011;25606;42.686;23.136;2022-07-22T05:12:28;7.43;;;3.60;;
8281;SDS011;25606;42.686;23.136;2022-07-22T05:14:55;7.07;;;3.60;;
8281;SDS011;25606;42.686;23.136;2022-07-22T05:17:22;4.77;;;3.43;;
8281;SDS011;25606;42.686;23.136;2022-07-22T05:19:49;3.47;;;3.17;;
8281;SDS011;25606;42.686;23.136;2022-07-22T05:22:18;3.80;;;3.20;;
8281;SDS011;25606;42.686;23.136;2022-07-22T05:24:45;4.53;;;3.50;;
8281;SDS011;25606;42.686;23.136;2022-07-22T05:27:12;4.87;;;3.57;;
8281;SDS011;25606;42.686;23.136;2022-07-22T05:29:40;5.50;;;3.43;;
8281;SDS011;25606;42.686;23.136;2022-07-22T05:32:07;5.75;;;3.78;;
8281;SDS011;25606;42.686;23.136;2022-07-22T05:34:34;4.63;;;4.18;;
8281;SDS011;25606;42.686;23.136;2022-07-22T05:37:02;13.37;;;4.43;;
8281;SDS011;25606;42.686;23.136;2022-07-22T05:39:30;4.97;;;3.20;;
8281;SDS011;25606;42.686;23.136;2022-07-22T05:41:58;5.32;;;3.70;;
8281;SDS011;25606;42.686;23.136;2022-07-22T05:44:25;5.47;;;3.42;;
8281;SDS011;25606;42.686;23.136;2022-07-22T05:46:52;3.83;;;3.53;;
8281;SDS011;25606;42.686;23.136;2022-07-22T05:49:19;4.13;;;3.45;;
8281;SDS011;25606;42.686;23.136;2022-07-22T05:51:49;5.18;;;3.53;;
8281;SDS011;25606;42.686;23.136;2022-07-22T05:54:17;4.60;;;3.40;;
8281;SDS011;25606;42.686;23.136;2022-07-22T05:56:45;8.20;;;4.13;;
8281;SDS011;25606;42.686;23.136;2022-07-22T05:59:13;10.25;;;4.07;;
8281;SDS011;25606;42.686;23.136;2022-07-22T06:01:41;10.90;;;3.97;;
8281;SDS011;25606;42.686;23.136;2022-07-22T06:04:08;4.10;;;3.70;;
8281;SDS011;25606;42.686;23.136;2022-07-22T06:06:36;5.68;;;3.70;;
8281;SDS011;25606;42.686;23.136;2022-07-22T06:09:03;4.28;;;3.33;;
8281;SDS011;25606;42.686;23.136;2022-07-22T06:11:30;4.65;;;3.65;;
8281;SDS011;25606;42.686;23.136;2022-07-22T06:13:59;5.00;;;3.72;;
8281;SDS011;25606;42.686;23.136;2022-07-22T06:16:26;4.72;;;3.70;;
8281;SDS011;25606;42.686;23.136;2022-07-22T06:18:53;4.57;;;3.67;;
8281;SDS011;25606;42.686;23.136;2022-07-22T06:21:22;8.55;;;4.38;;
8281;SDS011;25606;42.686;23.136;2022-07-22T06:23:49;5.43;;;3.85;;
8281;SDS011;25606;42.686;23.136;2022-07-22T06:26:16;4.57;;;3.65;;
8281;SDS011;25606;42.686;23.136;2022-07-22T06:28:43;6.35;;;4.40;;
8281;SDS011;25606;42.686;23.136;2022-07-22T06:31:12;254.18;;;188.63;;
8281;SDS011;25606;42.686;23.136;2022-07-22T06:33:39;6.15;;;3.83;;
8281;SDS011;25606;42.686;23.136;2022-07-22T06:36:07;5.28;;;3.97;;
8281;SDS011;25606;42.686;23.136;2022-07-22T06:38:34;5.75;;;3.55;;
8281;SDS011;25606;42.686;23.136;2022-07-22T06:41:01;5.75;;;3.83;;
8281;SDS011;25606;42.686;23.136;2022-07-22T06:43:28;6.97;;;4.32;;
8281;SDS011;25606;42.686;23.136;2022-07-22T06:45:56;5.55;;;4.47;;
8281;SDS011;25606;42.686;23.136;2022-07-22T06:48:24;3.85;;;3.50;;
8281;SDS011;25606;42.686;23.136;2022-07-22T06:50:52;5.70;;;4.22;;
8281;SDS011;25606;42.686;23.136;2022-07-22T06:53:19;6.30;;;5.03;;
8281;SDS011;25606;42.686;23.136;2022-07-22T06:55:46;10.68;;;5.22;;
8281;SDS011;25606;42.686;23.136;2022-07-22T06:58:14;11.27;;;5.38;;
8281;SDS011;25606;42.686;23.136;2022-07-22T07:00:41;8.70;;;6.45;;
8281;SDS011;25606;42.686;23.136;2022-07-22T07:03:08;20.92;;;14.10;;
8281;SDS011;25606;42.686;23.136;2022-07-22T07:05:37;14.20;;;6.03;;
8281;SDS011;25606;42.686;23.136;2022-07-22T07:08:04;13.98;;;6.60;;
8281;SDS011;25606;42.686;23.136;2022-07-22T07:10:32;15.60;;;5.88;;
8281;SDS011;25606;42.686;23.136;2022-07-22T07:12:59;33.00;;;24.63;;
8281;SDS011;25606;42.686;23.136;2022-07-22T07:15:26;21.98;;;15.00;;
8281;SDS011;25606;42.686;23.136;2022-07-22T07:17:54;17.10;;;9.48;;
8281;SDS011;25606;42.686;23.136;2022-07-22T07:20:22;21.63;;;14.95;;
8281;SDS011;25606;42.686;23.136;2022-07-22T07:22:50;26.25;;;20.80;;
8281;SDS011;25606;42.686;23.136;2022-07-22T07:25:18;13.82;;;6.78;;
8281;SDS011;25606;42.686;23.136;2022-07-22T07:27:45;20.17;;;12.45;;
8281;SDS011;25606;42.686;23.136;2022-07-22T07:30:12;34.10;;;28.50;;
8281;SDS011;25606;42.686;23.136;2022-07-22T07:32:40;50.55;;;44.17;;
8281;SDS011;25606;42.686;23.136;2022-07-22T07:35:07;78.07;;;12.75;;
8281;SDS011;25606;42.686;23.136;2022-07-22T07:37:35;306.80;;;31.15;;
8281;SDS011;25606;42.686;23.136;2022-07-22T07:40:04;79.13;;;32.35;;
8281;SDS011;25606;42.686;23.136;2022-07-22T07:42:32;55.15;;;48.13;;
8281;SDS011;25606;42.686;23.136;2022-07-22T07:44:59;69.55;;;61.22;;
8281;SDS011;25606;42.686;23.136;2022-07-22T07:47:26;78.18;;;69.70;;
8281;SDS011;25606;42.686;23.136;2022-07-22T07:49:53;107.75;;;97.93;;
8281;SDS011;25606;42.686;23.136;2022-07-22T07:52:22;119.45;;;108.43;;
8281;SDS011;25606;42.686;23.136;2022-07-22T07:54:49;133.13;;;120.20;;
8281;SDS011;25606;42.686;23.136;2022-07-22T07:57:18;154.70;;;140.32;;
8281;SDS011;25606;42.686;23.136;2022-07-22T07:59:45;153.90;;;139.98;;
8281;SDS011;25606;42.686;23.136;2022-07-22T08:02:12;173.40;;;158.00;;
8281;SDS011;25606;42.686;23.136;2022-07-22T08:04:40;204.05;;;185.30;;
8281;SDS011;25606;42.686;23.136;2022-07-22T08:07:07;197.10;;;179.00;;
8281;SDS011;25606;42.686;23.136;2022-07-22T08:09:35;203.25;;;185.40;;
8281;SDS011;25606;42.686;23.136;2022-07-22T08:12:02;183.35;;;167.75;;
8281;SDS011;25606;42.686;23.136;2022-07-22T08:14:31;183.45;;;167.82;;
8281;SDS011;25606;42.686;23.136;2022-07-22T08:16:59;185.80;;;170.05;;
8281;SDS011;25606;42.686;23.136;2022-07-22T08:19:26;106.47;;;97.07;;
8281;SDS011;25606;42.686;23.136;2022-07-22T08:21:54;52.33;;;47.70;;
8281;SDS011;25606;42.686;23.136;2022-07-22T08:24:21;104.38;;;94.68;;
8281;SDS011;25606;42.686;23.136;2022-07-22T08:26:48;133.43;;;121.93;;
8281;SDS011;25606;42.686;23.136;2022-07-22T08:29:16;169.90;;;155.35;;
8281;SDS011;25606;42.686;23.136;2022-07-22T08:31:44;189.90;;;173.23;;
8281;SDS011;25606;42.686;23.136;2022-07-22T08:34:12;172.63;;;158.45;;
8281;SDS011;25606;42.686;23.136;2022-07-22T08:36:39;179.55;;;163.80;;
8281;SDS011;25606;42.686;23.136;2022-07-22T08:39:07;147.95;;;134.82;;
8281;SDS011;25606;42.686;23.136;2022-07-22T08:41:36;136.63;;;125.43;;
8281;SDS011;25606;42.686;23.136;2022-07-22T08:44:04;76.28;;;69.70;;
8281;SDS011;25606;42.686;23.136;2022-07-22T08:46:32;87.47;;;79.35;;
8281;SDS011;25606;42.686;23.136;2022-07-22T08:49:01;113.78;;;103.78;;
8281;SDS011;25606;42.686;23.136;2022-07-22T08:51:28;23.80;;;15.43;;
8281;SDS011;25606;42.686;23.136;2022-07-22T08:53:56;19.13;;;8.32;;
8281;SDS011;25606;42.686;23.136;2022-07-22T08:56:23;30.08;;;23.00;;
8281;SDS011;25606;42.686;23.136;2022-07-22T08:58:50;35.22;;;30.02;;
8281;SDS011;25606;42.686;23.136;2022-07-22T09:01:17;13.98;;;5.82;;
8281;SDS011;25606;42.686;23.136;2022-07-22T09:03:46;11.90;;;5.40;;
8281;SDS011;25606;42.686;23.136;2022-07-22T09:06:16;16.33;;;6.75;;
8281;SDS011;25606;42.686;23.136;2022-07-22T09:08:50;13.43;;;5.72;;
8281;SDS011;25606;42.686;23.136;2022-07-22T09:11:18;18.30;;;9.25;;
8281;SDS011;25606;42.686;23.136;2022-07-22T09:13:45;21.25;;;10.18;;
8281;SDS011;25606;42.686;23.136;2022-07-22T09:16:13;16.30;;;6.70;;
8281;SDS011;25606;42.686;23.136;2022-07-22T09:18:47;23.05;;;15.63;;
8281;SDS011;25606;42.686;23.136;2022-07-22T09:21:16;26.35;;;13.25;;
8281;SDS011;25606;42.686;23.136;2022-07-22T09:23:43;19.27;;;11.02;;
8281;SDS011;25606;42.686;23.136;2022-07-22T09:26:28;20.42;;;9.65;;
8281;SDS011;25606;42.686;23.136;2022-07-22T09:28:56;19.85;;;6.95;;
8281;SDS011;25606;42.686;23.136;2022-07-22T09:31:24;17.40;;;7.30;;
8281;SDS011;25606;42.686;23.136;2022-07-22T09:33:51;32.83;;;17.58;;
8281;SDS011;25606;42.686;23.136;2022-07-22T09:36:21;19.17;;;6.47;;
8281;SDS011;25606;42.686;23.136;2022-07-22T09:38:49;14.02;;;5.38;;
8281;SDS011;25606;42.686;23.136;2022-07-22T09:41:16;16.83;;;6.05;;
8281;SDS011;25606;42.686;23.136;2022-07-22T09:43:44;12.77;;;5.40;;
8281;SDS011;25606;42.686;23.136;2022-07-22T09:46:11;26.80;;;9.70;;
8281;SDS011;25606;42.686;23.136;2022-07-22T09:48:39;27.33;;;15.90;;
8281;SDS011;25606;42.686;23.136;2022-07-22T09:51:08;33.80;;;25.70;;
8281;SDS011;25606;42.686;23.136;2022-07-22T09:53:36;47.75;;;41.08;;
8281;SDS011;25606;42.686;23.136;2022-07-22T09:56:04;85.63;;;78.40;;
8281;SDS011;25606;42.686;23.136;2022-07-22T09:58:32;64.40;;;58.47;;
8281;SDS011;25606;42.686;23.136;2022-07-22T10:01:05;39.28;;;30.52;;
8281;SDS011;25606;42.686;23.136;2022-07-22T10:03:34;34.28;;;25.90;;
8281;SDS011;25606;42.686;23.136;2022-07-22T10:06:02;55.92;;;48.22;;
8281;SDS011;25606;42.686;23.136;2022-07-22T10:08:30;45.63;;;36.88;;
8281;SDS011;25606;42.686;23.136;2022-07-22T10:10:59;29.02;;;19.23;;
8281;SDS011;25606;42.686;23.136;2022-07-22T10:13:27;16.00;;;6.30;;
8281;SDS011;25606;42.686;23.136;2022-07-22T10:15:55;15.60;;;5.93;;
8281;SDS011;25606;42.686;23.136;2022-07-22T10:18:23;12.98;;;5.97;;
8281;SDS011;25606;42.686;23.136;2022-07-22T10:21:00;12.10;;;5.53;;
8281;SDS011;25606;42.686;23.136;2022-07-22T10:23:27;23.45;;;7.63;;
8281;SDS011;25606;42.686;23.136;2022-07-22T10:25:55;18.73;;;5.70;;
8281;SDS011;25606;42.686;23.136;2022-07-22T10:28:25;16.73;;;6.45;;
8281;SDS011;25606;42.686;23.136;2022-07-22T10:30:53;20.35;;;10.15;;
8281;SDS011;25606;42.686;23.136;2022-07-22T10:33:29;17.63;;;8.15;;
8281;SDS011;25606;42.686;23.136;2022-07-22T10:35:57;16.48;;;8.77;;
8281;SDS011;25606;42.686;23.136;2022-07-22T10:38:24;25.55;;;14.88;;
8281;SDS011;25606;42.686;23.136;2022-07-22T10:40:53;23.65;;;12.18;;
8281;SDS011;25606;42.686;23.136;2022-07-22T10:43:21;24.10;;;15.50;;
8281;SDS011;25606;42.686;23.136;2022-07-22T10:45:51;19.02;;;9.60;;
8281;SDS011;25606;42.686;23.136;2022-07-22T10:48:23;15.23;;;6.68;;
8281;SDS011;25606;42.686;23.136;2022-07-22T10:50:54;15.10;;;6.40;;
8281;SDS011;25606;42.686;23.136;2022-07-22T10:56:20;16.58;;;5.97;;
8281;SDS011;25606;42.686;23.136;2022-07-22T11:01:35;16.42;;;6.80;;
8281;SDS011;25606;42.686;23.136;2022-07-22T11:04:07;10.80;;;5.03;;
8281;SDS011;25606;42.686;23.136;2022-07-22T11:06:34;16.27;;;6.10;;
8281;SDS011;25606;42.686;23.136;2022-07-22T11:09:03;12.60;;;6.05;;
8281;SDS011;25606;42.686;23.136;2022-07-22T11:11:34;15.45;;;6.60;;
8281;SDS011;25606;42.686;23.136;2022-07-22T11:14:09;14.07;;;5.63;;
8281;SDS011;25606;42.686;23.136;2022-07-22T11:16:39;16.83;;;6.82;;
8281;SDS011;25606;42.686;23.136;2022-07-22T11:19:06;16.83;;;6.20;;
8281;SDS011;25606;42.686;23.136;2022-07-22T11:21:34;15.95;;;5.93;;
8281;SDS011;25606;42.686;23.136;2022-07-22T11:24:02;18.67;;;6.50;;
8281;SDS011;25606;42.686;23.136;2022-07-22T11:26:33;15.65;;;6.18;;
8281;SDS011;25606;42.686;23.136;2022-07-22T11:29:01;16.17;;;6.97;;
8281;SDS011;25606;42.686;23.136;2022-07-22T11:31:28;15.23;;;6.47;;
8281;SDS011;25606;42.686;23.136;2022-07-22T11:34:05;14.63;;;6.20;;
8281;SDS011;25606;42.686;23.136;2022-07-22T11:36:32;23.50;;;11.00;;
8281;SDS011;25606;42.686;23.136;2022-07-22T11:39:00;22.27;;;15.82;;
8281;SDS011;25606;42.686;23.136;2022-07-22T11:41:28;19.20;;;8.48;;
8281;SDS011;25606;42.686;23.136;2022-07-22T11:43:56;29.30;;;21.27;;
8281;SDS011;25606;42.686;23.136;2022-07-22T11:46:24;19.13;;;9.43;;
8281;SDS011;25606;42.686;23.136;2022-07-22T11:48:51;17.38;;;12.25;;
8281;SDS011;25606;42.686;23.136;2022-07-22T11:51:20;23.35;;;12.82;;
8281;SDS011;25606;42.686;23.136;2022-07-22T11:53:48;76.80;;;70.28;;
8281;SDS011;25606;42.686;23.136;2022-07-22T11:56:15;98.18;;;89.78;;
8281;SDS011;25606;42.686;23.136;2022-07-22T11:58:43;45.97;;;39.40;;
8281;SDS011;25606;42.686;23.136;2022-07-22T12:01:11;49.55;;;43.25;;
8281;SDS011;25606;42.686;23.136;2022-07-22T12:03:40;56.55;;;36.30;;
8281;SDS011;25606;42.686;23.136;2022-07-22T12:06:09;53.03;;;46.28;;
8281;SDS011;25606;42.686;23.136;2022-07-22T12:08:40;50.38;;;41.50;;
8281;SDS011;25606;42.686;23.136;2022-07-22T12:11:08;31.20;;;17.67;;
8281;SDS011;25606;42.686;23.136;2022-07-22T12:13:36;46.30;;;37.40;;
8281;SDS011;25606;42.686;23.136;2022-07-22T12:16:21;36.13;;;29.38;;
8281;SDS011;25606;42.686;23.136;2022-07-22T12:18:52;64.30;;;58.72;;
8281;SDS011;25606;42.686;23.136;2022-07-22T12:21:20;134.70;;;125.47;;
8281;SDS011;25606;42.686;23.136;2022-07-22T12:23:54;51.92;;;46.03;;
8281;SDS011;25606;42.686;23.136;2022-07-22T12:29:22;21.60;;;7.00;;
8281;SDS011;25606;42.686;23.136;2022-07-22T12:31:50;20.00;;;6.72;;
8281;SDS011;25606;42.686;23.136;2022-07-22T12:37:11;29.15;;;10.48;;
8281;SDS011;25606;42.686;23.136;2022-07-22T12:39:40;36.40;;;18.05;;
8281;SDS011;25606;42.686;23.136;2022-07-22T12:42:18;48.05;;;29.30;;
8281;SDS011;25606;42.686;23.136;2022-07-22T12:44:50;38.00;;;15.38;;
8281;SDS011;25606;42.686;23.136;2022-07-22T12:50:14;73.07;;;58.33;;
8281;SDS011;25606;42.686;23.136;2022-07-22T12:52:42;59.97;;;50.40;;
8281;SDS011;25606;42.686;23.136;2022-07-22T12:55:10;27.35;;;12.82;;
8281;SDS011;25606;42.686;23.136;2022-07-22T12:57:38;34.10;;;11.27;;
8281;SDS011;25606;42.686;23.136;2022-07-22T13:00:05;33.20;;;16.98;;
8281;SDS011;25606;42.686;23.136;2022-07-22T13:02:33;31.05;;;10.80;;
8281;SDS011;25606;42.686;23.136;2022-07-22T13:05:01;40.20;;;22.58;;
8281;SDS011;25606;42.686;23.136;2022-07-22T13:07:28;37.90;;;26.98;;
8281;SDS011;25606;42.686;23.136;2022-07-22T13:09:56;63.75;;;50.47;;
8281;SDS011;25606;42.686;23.136;2022-07-22T13:12:24;56.65;;;36.78;;
8281;SDS011;25606;42.686;23.136;2022-07-22T13:14:52;36.55;;;21.27;;
8281;SDS011;25606;42.686;23.136;2022-07-22T13:17:19;75.43;;;63.55;;
8281;SDS011;25606;42.686;23.136;2022-07-22T13:19:46;30.48;;;16.35;;
8281;SDS011;25606;42.686;23.136;2022-07-22T13:22:13;32.72;;;12.32;;
8281;SDS011;25606;42.686;23.136;2022-07-22T13:24:41;23.80;;;7.93;;
8281;SDS011;25606;42.686;23.136;2022-07-22T13:27:08;17.67;;;6.10;;
8281;SDS011;25606;42.686;23.136;2022-07-22T13:29:36;43.70;;;10.75;;
8281;SDS011;25606;42.686;23.136;2022-07-22T13:32:04;18.67;;;6.20;;
8281;SDS011;25606;42.686;23.136;2022-07-22T13:34:32;32.78;;;10.73;;
8281;SDS011;25606;42.686;23.136;2022-07-22T13:36:59;39.75;;;9.02;;
8281;SDS011;25606;42.686;23.136;2022-07-22T13:39:27;35.10;;;8.82;;
8281;SDS011;25606;42.686;23.136;2022-07-22T13:41:54;33.00;;;8.23;;
8281;SDS011;25606;42.686;23.136;2022-07-22T13:44:21;32.20;;;10.52;;
8281;SDS011;25606;42.686;23.136;2022-07-22T13:46:50;23.58;;;8.25;;
8281;SDS011;25606;42.686;23.136;2022-07-22T13:49:17;21.27;;;6.78;;
8281;SDS011;25606;42.686;23.136;2022-07-22T13:51:45;33.33;;;8.43;;
8281;SDS011;25606;42.686;23.136;2022-07-22T13:54:12;16.30;;;6.65;;
8281;SDS011;25606;42.686;23.136;2022-07-22T13:56:39;20.85;;;6.93;;
8281;SDS011;25606;42.686;23.136;2022-07-22T13:59:06;25.23;;;11.18;;
8281;SDS011;25606;42.686;23.136;2022-07-22T14:01:34;24.55;;;16.00;;
8281;SDS011;25606;42.686;23.136;2022-07-22T14:04:03;20.85;;;6.90;;
8281;SDS011;25606;42.686;23.136;2022-07-22T14:06:31;18.63;;;7.53;;
8281;SDS011;25606;42.686;23.136;2022-07-22T14:08:58;28.48;;;11.50;;
8281;SDS011;25606;42.686;23.136;2022-07-22T14:11:26;35.38;;;24.95;;
8281;SDS011;25606;42.686;23.136;2022-07-22T14:13:53;17.67;;;9.48;;
8281;SDS011;25606;42.686;23.136;2022-07-22T14:16:20;22.85;;;9.48;;
8281;SDS011;25606;42.686;23.136;2022-07-22T14:18:59;16.55;;;6.60;;
8281;SDS011;25606;42.686;23.136;2022-07-22T14:21:28;22.88;;;12.30;;
8281;SDS011;25606;42.686;23.136;2022-07-22T14:23:55;19.17;;;10.35;;
8281;SDS011;25606;42.686;23.136;2022-07-22T14:26:23;27.23;;;12.88;;
8281;SDS011;25606;42.686;23.136;2022-07-22T14:28:50;18.30;;;7.07;;
8281;SDS011;25606;42.686;23.136;2022-07-22T14:31:17;17.73;;;8.73;;
8281;SDS011;25606;42.686;23.136;2022-07-22T14:33:45;20.40;;;7.15;;
8281;SDS011;25606;42.686;23.136;2022-07-22T14:36:12;25.55;;;7.47;;
8281;SDS011;25606;42.686;23.136;2022-07-22T14:38:41;21.80;;;7.88;;
8281;SDS011;25606;42.686;23.136;2022-07-22T14:41:08;26.10;;;12.15;;
8281;SDS011;25606;42.686;23.136;2022-07-22T14:43:36;38.38;;;32.35;;
8281;SDS011;25606;42.686;23.136;2022-07-22T14:46:03;22.70;;;8.30;;
8281;SDS011;25606;42.686;23.136;2022-07-22T14:48:32;36.88;;;29.27;;
8281;SDS011;25606;42.686;23.136;2022-07-22T14:50:59;47.22;;;35.25;;
8281;SDS011;25606;42.686;23.136;2022-07-22T14:53:27;49.22;;;42.40;;